Time;durP1;ratioP1;P1;durP2;ratioP2;P2;SDS_P1;SDS_P2;PMS_P1;PMS_P2;Temp;Humidity;BMP_temperature;BMP_pressure;BME280_temperature;BME280_humidity;BME280_pressure;Samples;Min_cycle;Max_cycle;Signal;HPM_P1;HPM_P2
2024/01/07 00:03:46;;;;;;;10.52;6.88;;;;;;;;;;6024907;23;20362;-78
2024/01/07 00:06:50;;;;;;;9.15;6.57;;;;;;;;;;6073938;23;20061;-78
2024/01/07 00:12:39;;;;;;;8.38;5.47;;;;;;;;;;6184036;23;20021;-78
2024/01/07 00:18:34;;;;;;;;;;;;;;;;;;;;;
2024/01/07 00:21:09;;;;;;;10.25;6.25;;;;;;;;;;6214506;23;20048;-78
2024/01/07 00:23:38;;;;;;;9.98;6.15;;;;;;;;;;6217315;23;20068;-78
2024/01/07 00:26:10;;;;;;;9.35;5.40;;;;;;;;;;6217658;23;20016;-78
2024/01/07 00:32:07;;;;;;;9.50;5.78;;;;;;;;;;6242938;22;20517;-78
2024/01/07 00:34:47;;;;;;;7.82;5.20;;;;;;;;;;6242743;22;20019;-78
2024/01/07 00:37:25;;;;;;;;;;;;;;;;;;6256380;22;20072;-78
2024/01/07 00:42:56;;;;;;;10.68;5.07;;;;;;;;;;6277218;22;20031;-78
2024/01/07 00:45:25;;;;;;;10.70;5.65;;;;;;;;;;6244364;22;20055;-78
2024/01/07 00:48:03;;;;;;;7.03;4.20;;;;;;;;;;6244586;22;20356;-78
2024/01/07 00:50:41;;;;;;;8.30;4.47;;;;;;;;;;6244007;22;20599;-79
2024/01/07 00:53:39;;;;;;;7.82;5.18;;;;;;;;;;6239686;22;20047;-78
2024/01/07 00:56:53;;;;;;;8.02;5.47;;;;;;;;;;6224037;22;20119;-78
2024/01/07 00:59:25;;;;;;;8.85;5.18;;;;;;;;;;6193202;22;20019;-78
2024/01/07 01:05:32;;;;;;;10.77;6.00;;;;;;;;;;6278732;22;20023;-78
2024/01/07 01:08:32;;;;;;;7.70;5.05;;;;;;;;;;6257042;22;20015;-77
2024/01/07 01:11:27;;;;;;;8.25;4.10;;;;;;;;;;6250589;22;20361;-78
2024/01/07 01:21:19;;;;;;;8.52;4.43;;;;;;;;;;6216831;23;20020;-78
2024/01/07 01:34:35;;;;;;;9.40;4.93;;;;;;;;;;6011067;23;20024;-78
2024/01/07 01:37:35;;;;;;;8.40;4.60;;;;;;;;;;6007940;23;20094;-78
2024/01/07 01:40:40;;;;;;;7.18;4.43;;;;;;;;;;5952542;24;20327;-78
2024/01/07 01:44:00;;;;;;;;;;;;;;;;;;;;;
2024/01/07 01:47:18;;;;;;;7.88;4.75;;;;;;;;;;6035421;23;20024;-78
2024/01/07 01:53:43;;;;;;;6.88;4.55;;;;;;;;;;5893124;24;20371;-78
2024/01/07 02:00:28;;;;;;;;;;;;;;;;;;;;;
2024/01/07 02:11:16;;;;;;;7.63;4.93;;;;;;;;;;5815772;24;20021;-78
2024/01/07 02:24:24;;;;;;;;;;;;;;;;;;;;;
2024/01/07 02:27:22;;;;;;;6.47;4.32;;;;;;;;;;5764081;24;20042;-78
2024/01/07 02:41:36;;;;;;;;;;;;;;;;;;;;;
2024/01/07 02:48:19;;;;;;;7.70;4.28;;;;;;;;;;5896095;24;20028;-78
2024/01/07 02:51:24;;;;;;;;;;;;;;;;;;;;;
2024/01/07 02:54:32;;;;;;;5.50;3.72;;;;;;;;;;6007166;23;20055;-78
2024/01/07 02:57:16;;;;;;;5.38;3.40;;;;;;;;;;5983559;23;20109;-78
2024/01/07 02:59:59;;;;;;;6.43;3.80;;;;;;;;;;5986599;23;20019;-78
2024/01/07 03:03:03;;;;;;;7.45;3.90;;;;;;;;;;5993217;23;20019;-78
2024/01/07 03:05:46;;;;;;;7.05;4.20;;;;;;;;;;5993246;23;20128;-78
2024/01/07 03:12:18;;;;;;;6.57;3.58;;;;;;;;;;6275991;22;20026;-78
2024/01/07 03:15:05;;;;;;;;;;;;;;;;;;6254611;22;20012;-78
2024/01/07 03:24:08;;;;;;;6.05;3.22;;;;;;;;;;6260554;22;20019;-78
2024/01/07 03:26:58;;;;;;;6.75;3.42;;;;;;;;;;6255207;22;20047;-78
2024/01/07 03:29:43;;;;;;;;;;;;;;;;;;;;;
2024/01/07 03:32:59;;;;;;;4.47;2.83;;;;;;;;;;6277103;22;20098;-77
2024/01/07 03:36:03;;;;;;;4.30;3.00;;;;;;;;;;6254558;22;20068;-77
2024/01/07 03:38:46;;;;;;;5.15;2.85;;;;;;;;;;6252250;22;20386;-78
2024/01/07 03:41:51;;;;;;;4.93;2.95;;;;;;;;;;6280495;22;20019;-78
2024/01/07 03:47:39;;;;;;;;;;;;;;;;;;6242554;23;20024;-78
2024/01/07 03:50:27;;;;;;;;;;;;;;;;;;;;;
2024/01/07 03:53:45;;;;;;;4.63;2.70;;;;;;;;;;6241110;22;20020;-78
2024/01/07 04:03:20;;;;;;;3.33;2.55;;;;;;;;;;6037138;23;20079;-78
2024/01/07 04:06:19;;;;;;;4.55;2.58;;;;;;;;;;5988305;23;20027;-78
2024/01/07 04:09:49;;;;;;;;;;;;;;;;;;;;;
2024/01/07 04:19:01;;;;;;;3.03;2.50;;;;;;;;;;5880541;23;20061;-78
2024/01/07 04:22:04;;;;;;;5.20;2.78;;;;;;;;;;5984374;23;20015;-78
2024/01/07 04:25:04;;;;;;;;;;;;;;;;;;;;;
2024/01/07 04:30:54;;;;;;;4.97;2.75;;;;;;;;;;5987826;23;20093;-78
2024/01/07 04:37:28;;;;;;;3.33;2.50;;;;;;;;;;6152924;23;20033;-78
2024/01/07 04:40:38;;;;;;;4.63;2.60;;;;;;;;;;6065166;23;20023;-78
2024/01/07 04:43:44;;;;;;;4.63;2.45;;;;;;;;;;6030870;23;20022;-78
2024/01/07 04:46:41;;;;;;;4.22;2.50;;;;;;;;;;6035744;23;20022;-78
2024/01/07 04:49:38;;;;;;;5.50;2.50;;;;;;;;;;6017998;23;20368;-78
2024/01/07 04:52:18;;;;;;;3.13;2.72;;;;;;;;;;6022500;23;20420;-78
2024/01/07 04:55:13;;;;;;;4.60;2.63;;;;;;;;;;6016438;23;20023;-78
2024/01/07 05:01:24;;;;;;;;;;;;;;;;;;;;;
2024/01/07 05:04:30;;;;;;;3.63;2.47;;;;;;;;;;6183228;23;20015;-78
2024/01/07 05:07:14;;;;;;;4.38;2.30;;;;;;;;;;6127073;23;20028;-77
2024/01/07 05:10:20;;;;;;;3.45;2.15;;;;;;;;;;6094385;23;20023;-78
2024/01/07 05:19:54;;;;;;;7.07;2.47;;;;;;;;;;6035911;23;20033;-78
2024/01/07 05:22:48;;;;;;;2.50;2.15;;;;;;;;;;6016888;23;20070;-78
2024/01/07 05:25:36;;;;;;;;;;;;;;;;;;;;;
2024/01/07 05:28:31;;;;;;;3.60;2.47;;;;;;;;;;6123087;23;20525;-78
2024/01/07 05:31:37;;;;;;;4.53;2.30;;;;;;;;;;6098099;23;20113;-78
2024/01/07 05:37:54;;;;;;;;;;;;;;;;;;;;;
2024/01/07 05:47:26;;;;;;;4.28;2.08;;;;;;;;;;6040197;23;20022;-78
2024/01/07 05:50:46;;;;;;;3.05;2.30;;;;;;;;;;6044146;23;20018;-79
2024/01/07 05:53:49;;;;;;;4.45;2.20;;;;;;;;;;6064334;23;20041;-78
2024/01/07 05:56:39;;;;;;;2.92;2.22;;;;;;;;;;6016190;23;20018;-78
2024/01/07 06:03:06;;;;;;;;;;;;;;;;;;;;;
2024/01/07 06:09:13;;;;;;;2.63;2.03;;;;;;;;;;6057439;23;20053;-78
2024/01/07 06:12:05;;;;;;;2.72;2.00;;;;;;;;;;6097847;23;20022;-79
2024/01/07 06:14:46;;;;;;;2.75;1.98;;;;;;;;;;6012126;23;20028;-78
2024/01/07 06:18:11;;;;;;;2.47;1.90;;;;;;;;;;6008061;23;20038;-78
2024/01/07 06:24:34;;;;;;;3.63;2.00;;;;;;;;;;5947817;23;20171;-78
2024/01/07 06:27:26;;;;;;;3.75;2.53;;;;;;;;;;6094135;23;20087;-79
2024/01/07 06:30:25;;;;;;;2.95;2.05;;;;;;;;;;6157364;23;20017;-79
2024/01/07 06:39:53;;;;;;;3.22;2.00;;;;;;;;;;6122864;23;20093;-79
2024/01/07 06:43:18;;;;;;;;;;;;;;;;;;;;;
2024/01/07 06:46:27;;;;;;;4.55;2.00;;;;;;;;;;6032975;23;20023;-79
2024/01/07 06:49:14;;;;;;;2.78;2.13;;;;;;;;;;6064292;23;20125;-78
2024/01/07 06:58:56;;;;;;;;;;;;;;;;;;;;;
2024/01/07 07:01:36;;;;;;;3.88;2.10;;;;;;;;;;6097578;23;20014;-78
2024/01/07 07:04:02;;;;;;;2.42;2.05;;;;;;;;;;6221871;22;20440;-78
2024/01/07 07:06:28;;;;;;;4.10;2.40;;;;;;;;;;6219151;22;20027;-78
2024/01/07 07:08:54;;;;;;;8.15;4.00;;;;;;;;;;6221519;22;20015;-78
2024/01/07 07:11:21;;;;;;;4.32;3.65;;;;;;;;;;6222045;22;20054;-77
2024/01/07 07:13:47;;;;;;;3.60;2.40;;;;;;;;;;6221935;22;20023;-78
2024/01/07 07:16:13;;;;;;;2.60;2.40;;;;;;;;;;6222163;22;20353;-77
2024/01/07 07:18:39;;;;;;;4.80;3.13;;;;;;;;;;6244712;22;20019;-77
2024/01/07 07:21:05;;;;;;;4.22;2.97;;;;;;;;;;6252490;22;20073;-78
2024/01/07 07:23:34;;;;;;;3.78;2.47;;;;;;;;;;6254469;22;20095;-78
2024/01/07 07:26:00;;;;;;;4.03;2.50;;;;;;;;;;6252899;22;20069;-77
2024/01/07 07:28:26;;;;;;;2.63;2.05;;;;;;;;;;6253769;22;20023;-78
2024/01/07 07:30:55;;;;;;;4.35;2.53;;;;;;;;;;6255639;22;20086;-78
2024/01/07 07:33:21;;;;;;;3.22;2.28;;;;;;;;;;6254642;22;20496;-78
2024/01/07 07:35:47;;;;;;;4.60;2.60;;;;;;;;;;6254583;22;20517;-78
2024/01/07 07:38:14;;;;;;;4.95;2.88;;;;;;;;;;6255630;22;20098;-77
2024/01/07 07:40:40;;;;;;;3.75;2.67;;;;;;;;;;6255263;22;20019;-78
2024/01/07 07:43:07;;;;;;;3.83;2.50;;;;;;;;;;6255735;22;20187;-78
2024/01/07 07:45:33;;;;;;;4.57;2.63;;;;;;;;;;6255316;22;20015;-77
2024/01/07 07:47:59;;;;;;;5.03;2.45;;;;;;;;;;6254311;22;20011;-77
2024/01/07 07:50:25;;;;;;;5.72;3.55;;;;;;;;;;6255074;22;20440;-77
2024/01/07 07:52:51;;;;;;;4.80;2.95;;;;;;;;;;6255413;22;20015;-78
2024/01/07 07:55:17;;;;;;;4.03;2.60;;;;;;;;;;6308182;22;20016;-77
2024/01/07 07:57:47;;;;;;;3.90;2.70;;;;;;;;;;6280805;22;20090;-77
2024/01/07 08:00:26;;;;;;;11.00;6.13;;;;;;;;;;6251944;22;20014;-77
2024/01/07 08:02:52;;;;;;;3.88;2.50;;;;;;;;;;6254931;22;20015;-77
2024/01/07 08:05:18;;;;;;;4.80;3.13;;;;;;;;;;6280702;22;20073;-77
2024/01/07 08:07:44;;;;;;;8.00;4.72;;;;;;;;;;6253973;22;20451;-78
2024/01/07 08:10:10;;;;;;;9.50;3.55;;;;;;;;;;6255375;22;20047;-78
2024/01/07 08:12:36;;;;;;;5.63;3.65;;;;;;;;;;6256138;22;20073;-78
2024/01/07 08:15:03;;;;;;;3.88;2.50;;;;;;;;;;6254989;22;20043;-78
2024/01/07 08:17:29;;;;;;;4.80;2.58;;;;;;;;;;6254888;22;20027;-78
2024/01/07 08:19:55;;;;;;;5.20;3.20;;;;;;;;;;6255321;22;20019;-78
2024/01/07 08:22:21;;;;;;;2.95;2.60;;;;;;;;;;6255087;22;20021;-78
2024/01/07 08:24:47;;;;;;;4.72;2.85;;;;;;;;;;6254670;22;20022;-78
2024/01/07 08:27:13;;;;;;;6.05;2.45;;;;;;;;;;6254399;22;20061;-78
2024/01/07 08:29:39;;;;;;;5.82;2.75;;;;;;;;;;6254710;22;20451;-78
2024/01/07 08:32:05;;;;;;;4.93;3.33;;;;;;;;;;6254634;22;20072;-78
2024/01/07 08:34:32;;;;;;;2.92;2.30;;;;;;;;;;6254407;22;20022;-78
2024/01/07 08:36:58;;;;;;;3.53;2.47;;;;;;;;;;6254876;22;20019;-78
2024/01/07 08:39:25;;;;;;;4.10;2.80;;;;;;;;;;6253103;22;20096;-78
2024/01/07 08:41:52;;;;;;;5.03;3.55;;;;;;;;;;6255103;22;20098;-78
2024/01/07 08:44:18;;;;;;;4.85;2.70;;;;;;;;;;6280837;22;20046;-78
2024/01/07 08:46:45;;;;;;;3.60;2.95;;;;;;;;;;6254936;22;20019;-78
2024/01/07 08:49:11;;;;;;;5.43;3.10;;;;;;;;;;6255113;22;20054;-78
2024/01/07 08:51:38;;;;;;;4.20;2.95;;;;;;;;;;6255223;22;20019;-78
2024/01/07 08:54:04;;;;;;;9.00;5.15;;;;;;;;;;6254994;22;20095;-78
2024/01/07 08:56:32;;;;;;;5.28;2.97;;;;;;;;;;6254830;22;20053;-78
2024/01/07 08:58:59;;;;;;;6.15;3.55;;;;;;;;;;6255079;22;20023;-78
2024/01/07 09:01:25;;;;;;;6.80;3.63;;;;;;;;;;6255131;22;20023;-78
2024/01/07 09:03:51;;;;;;;6.90;4.40;;;;;;;;;;6255128;22;20015;-78
2024/01/07 09:06:17;;;;;;;7.28;3.97;;;;;;;;;;6254670;22;20019;-78
2024/01/07 09:08:43;;;;;;;3.80;2.85;;;;;;;;;;6254699;22;20015;-78
2024/01/07 09:11:12;;;;;;;7.55;3.90;;;;;;;;;;6255019;22;20023;-78
2024/01/07 09:13:38;;;;;;;5.72;2.90;;;;;;;;;;6255116;22;20055;-78
2024/01/07 09:16:04;;;;;;;15.38;6.50;;;;;;;;;;6255456;22;20011;-78
2024/01/07 09:18:33;;;;;;;8.57;5.72;;;;;;;;;;6256538;22;20011;-78
2024/01/07 09:20:59;;;;;;;6.93;4.43;;;;;;;;;;6308051;22;20019;-78
2024/01/07 09:23:25;;;;;;;5.68;3.30;;;;;;;;;;6280406;22;20019;-78
2024/01/07 09:25:51;;;;;;;5.88;3.70;;;;;;;;;;6280654;22;20015;-78
2024/01/07 09:28:17;;;;;;;6.18;3.35;;;;;;;;;;6254872;22;20019;-78
2024/01/07 09:30:43;;;;;;;4.28;3.13;;;;;;;;;;6254701;22;20042;-78
2024/01/07 09:33:10;;;;;;;11.20;5.75;;;;;;;;;;6280207;22;20451;-78
2024/01/07 09:35:36;;;;;;;6.97;4.20;;;;;;;;;;6254859;22;20440;-78
2024/01/07 09:38:03;;;;;;;24.95;10.85;;;;;;;;;;6254483;22;20062;-78
2024/01/07 09:40:30;;;;;;;4.30;2.97;;;;;;;;;;6254465;22;20015;-78
2024/01/07 09:42:56;;;;;;;21.80;10.60;;;;;;;;;;6280196;22;20383;-78
2024/01/07 09:45:23;;;;;;;10.20;4.00;;;;;;;;;;6280386;22;20019;-78
2024/01/07 09:47:49;;;;;;;6.32;3.00;;;;;;;;;;6254643;22;20015;-78
2024/01/07 09:50:16;;;;;;;7.50;4.00;;;;;;;;;;6254579;22;20455;-78
2024/01/07 09:52:44;;;;;;;11.02;6.28;;;;;;;;;;6279783;22;20015;-78
2024/01/07 09:55:13;;;;;;;4.28;3.10;;;;;;;;;;6254534;22;20012;-78
2024/01/07 09:57:41;;;;;;;5.28;3.50;;;;;;;;;;6254366;22;20424;-78
2024/01/07 10:00:07;;;;;;;6.95;4.18;;;;;;;;;;6254683;22;20018;-78
2024/01/07 10:02:35;;;;;;;7.47;4.80;;;;;;;;;;6254402;22;20050;-78
2024/01/07 10:05:04;;;;;;;6.60;4.38;;;;;;;;;;6254353;22;20019;-78
2024/01/07 10:07:30;;;;;;;4.15;3.00;;;;;;;;;;6254265;22;20321;-78
2024/01/07 10:09:56;;;;;;;4.43;2.60;;;;;;;;;;6254498;22;20015;-78
2024/01/07 10:12:27;;;;;;;9.63;6.25;;;;;;;;;;6254080;22;20022;-78
2024/01/07 10:14:53;;;;;;;6.75;3.20;;;;;;;;;;6253610;22;20050;-78
2024/01/07 10:17:19;;;;;;;3.72;2.60;;;;;;;;;;6254457;22;20090;-78
2024/01/07 10:19:49;;;;;;;3.63;2.58;;;;;;;;;;6253584;22;20066;-78
2024/01/07 10:22:16;;;;;;;4.05;2.70;;;;;;;;;;6254689;22;20015;-78
2024/01/07 10:24:45;;;;;;;4.00;2.72;;;;;;;;;;6254088;22;20042;-78
2024/01/07 10:27:14;;;;;;;4.38;2.60;;;;;;;;;;6279775;22;20011;-78
2024/01/07 10:29:40;;;;;;;3.67;2.45;;;;;;;;;;6254161;22;20451;-78
2024/01/07 10:32:07;;;;;;;4.13;2.63;;;;;;;;;;6253596;22;20015;-79
2024/01/07 10:34:34;;;;;;;4.72;3.10;;;;;;;;;;6253462;22;20346;-78
2024/01/07 10:37:00;;;;;;;4.10;2.63;;;;;;;;;;6253773;22;20466;-78
2024/01/07 10:39:27;;;;;;;5.20;2.88;;;;;;;;;;6279710;22;20053;-79
2024/01/07 10:41:57;;;;;;;4.97;3.05;;;;;;;;;;6253447;22;20026;-78
2024/01/07 10:44:27;;;;;;;15.65;6.80;;;;;;;;;;6253597;22;20011;-78
2024/01/07 10:46:56;;;;;;;3.90;2.80;;;;;;;;;;6252955;22;20347;-78
2024/01/07 10:49:32;;;;;;;6.85;3.95;;;;;;;;;;6279295;22;20440;-78
2024/01/07 10:52:07;;;;;;;5.43;2.92;;;;;;;;;;6251726;22;20447;-79
2024/01/07 10:54:34;;;;;;;7.80;4.55;;;;;;;;;;6277172;22;20069;-78
2024/01/07 10:57:21;;;;;;;6.07;3.65;;;;;;;;;;6251840;22;20016;-78
2024/01/07 10:59:47;;;;;;;9.77;4.90;;;;;;;;;;6251982;22;20026;-78
2024/01/07 11:02:14;;;;;;;3.63;2.60;;;;;;;;;;6253419;22;20021;-78
2024/01/07 11:05:00;;;;;;;6.15;3.42;;;;;;;;;;6252185;22;20022;-78
2024/01/07 11:07:37;;;;;;;6.07;3.03;;;;;;;;;;6253442;22;20156;-78
2024/01/07 11:10:25;;;;;;;4.03;2.55;;;;;;;;;;6253430;22;20019;-78
2024/01/07 11:12:55;;;;;;;3.85;2.95;;;;;;;;;;6278600;22;20064;-78
2024/01/07 11:15:40;;;;;;;3.67;2.95;;;;;;;;;;6279159;22;20030;-79
2024/01/07 11:18:06;;;;;;;4.78;3.20;;;;;;;;;;6253660;22;20015;-78
2024/01/07 11:20:41;;;;;;;5.00;3.03;;;;;;;;;;6254308;22;20098;-78
2024/01/07 11:26:15;;;;;;;4.90;2.80;;;;;;;;;;6263569;22;20085;-80
2024/01/07 11:28:57;;;;;;;4.60;2.85;;;;;;;;;;6253245;22;20030;-78
2024/01/07 11:31:42;;;;;;;5.70;2.63;;;;;;;;;;6253047;22;20015;-78
2024/01/07 11:34:11;;;;;;;6.88;3.15;;;;;;;;;;6253024;22;20090;-78
2024/01/07 11:36:41;;;;;;;5.53;3.05;;;;;;;;;;6252872;22;20022;-78
2024/01/07 11:39:10;;;;;;;5.50;2.85;;;;;;;;;;6253648;22;20022;-78
2024/01/07 11:41:38;;;;;;;6.45;3.10;;;;;;;;;;6276603;22;20019;-78
2024/01/07 11:44:05;;;;;;;7.32;3.42;;;;;;;;;;6253840;22;20019;-78
2024/01/07 11:46:31;;;;;;;7.28;2.90;;;;;;;;;;6278453;22;20015;-77
2024/01/07 11:48:58;;;;;;;4.47;3.13;;;;;;;;;;6253346;22;20011;-77
2024/01/07 11:51:28;;;;;;;3.38;2.80;;;;;;;;;;6252395;22;20053;-77
2024/01/07 11:53:54;;;;;;;5.78;3.00;;;;;;;;;;6253679;22;20539;-77
2024/01/07 11:56:20;;;;;;;6.05;3.42;;;;;;;;;;6252766;22;20102;-77
2024/01/07 11:58:47;;;;;;;8.32;3.15;;;;;;;;;;6253124;22;20019;-77
2024/01/07 12:01:16;;;;;;;4.53;2.80;;;;;;;;;;6253258;22;20020;-77
2024/01/07 12:03:43;;;;;;;6.68;3.40;;;;;;;;;;6253011;22;20020;-77
2024/01/07 12:06:13;;;;;;;3.65;2.60;;;;;;;;;;6253044;22;20034;-78
2024/01/07 12:08:46;;;;;;;5.38;2.80;;;;;;;;;;6253477;22;20019;-78
2024/01/07 12:11:15;;;;;;;4.63;2.55;;;;;;;;;;6254207;22;20097;-77
2024/01/07 12:13:42;;;;;;;3.55;2.47;;;;;;;;;;6253753;22;20376;-77
2024/01/07 12:16:10;;;;;;;4.93;2.42;;;;;;;;;;6255611;22;20023;-77
2024/01/07 12:18:40;;;;;;;3.40;2.30;;;;;;;;;;6281066;22;20029;-77
2024/01/07 12:21:06;;;;;;;4.03;2.80;;;;;;;;;;6253745;22;20007;-77
2024/01/07 12:23:38;;;;;;;3.50;2.30;;;;;;;;;;6254369;22;20346;-78
2024/01/07 12:26:09;;;;;;;5.68;2.30;;;;;;;;;;6254260;22;20034;-78
2024/01/07 12:28:36;;;;;;;3.33;2.25;;;;;;;;;;6254641;22;20094;-77
2024/01/07 12:31:02;;;;;;;5.38;2.75;;;;;;;;;;6306842;22;20019;-77
2024/01/07 12:33:31;;;;;;;4.05;2.22;;;;;;;;;;6255087;22;20518;-77
2024/01/07 12:36:00;;;;;;;5.30;2.80;;;;;;;;;;6307319;22;20018;-77
2024/01/07 12:38:27;;;;;;;5.60;2.80;;;;;;;;;;6255269;22;20166;-77
2024/01/07 12:40:53;;;;;;;4.35;2.80;;;;;;;;;;6254205;22;20037;-77
2024/01/07 12:43:23;;;;;;;4.60;2.90;;;;;;;;;;6255060;22;20023;-77
2024/01/07 12:45:49;;;;;;;3.67;2.60;;;;;;;;;;6254513;22;20084;-78
2024/01/07 12:48:15;;;;;;;3.75;2.60;;;;;;;;;;6254686;22;20012;-77
2024/01/07 12:50:41;;;;;;;5.25;2.63;;;;;;;;;;6254114;22;20098;-77
2024/01/07 12:53:08;;;;;;;3.45;2.53;;;;;;;;;;6280376;22;20455;-77
2024/01/07 12:55:34;;;;;;;4.82;2.88;;;;;;;;;;6280271;22;20090;-77
2024/01/07 12:58:01;;;;;;;4.25;2.50;;;;;;;;;;6254779;22;20015;-77
2024/01/07 13:00:28;;;;;;;3.38;2.22;;;;;;;;;;6280088;22;20023;-77
2024/01/07 13:02:54;;;;;;;3.55;2.70;;;;;;;;;;6254406;22;20015;-77
2024/01/07 13:05:21;;;;;;;5.78;3.13;;;;;;;;;;6254934;22;20015;-77
2024/01/07 13:07:47;;;;;;;5.13;2.83;;;;;;;;;;6254338;22;20366;-77
2024/01/07 13:10:14;;;;;;;6.53;3.10;;;;;;;;;;6255214;22;20059;-77
2024/01/07 13:12:40;;;;;;;5.07;2.63;;;;;;;;;;6253111;22;20065;-77
2024/01/07 13:15:06;;;;;;;6.68;2.75;;;;;;;;;;6254767;22;20448;-78
2024/01/07 13:17:33;;;;;;;5.47;2.88;;;;;;;;;;6255065;22;20035;-77
2024/01/07 13:19:59;;;;;;;6.55;2.90;;;;;;;;;;6279564;22;20026;-77
2024/01/07 13:22:25;;;;;;;4.78;2.80;;;;;;;;;;6279043;22;20020;-77
2024/01/07 13:24:54;;;;;;;6.32;2.70;;;;;;;;;;6254385;22;20047;-77
2024/01/07 13:27:20;;;;;;;4.82;2.80;;;;;;;;;;6254009;22;20030;-77
2024/01/07 13:29:47;;;;;;;5.88;2.90;;;;;;;;;;6254332;22;20028;-77
2024/01/07 13:32:17;;;;;;;6.60;2.90;;;;;;;;;;6254649;22;20519;-77
2024/01/07 13:34:44;;;;;;;6.90;2.75;;;;;;;;;;6253426;22;20065;-77
2024/01/07 13:37:10;;;;;;;4.22;2.40;;;;;;;;;;6279724;22;20019;-77
2024/01/07 13:42:26;;;;;;;5.50;2.58;;;;;;;;;;6263430;22;20023;-78
2024/01/07 13:44:52;;;;;;;5.05;2.50;;;;;;;;;;6252874;22;20026;-78
2024/01/07 13:47:18;;;;;;;5.45;2.45;;;;;;;;;;6279573;22;20015;-77
2024/01/07 13:49:47;;;;;;;4.30;2.58;;;;;;;;;;6254477;22;20022;-77
2024/01/07 13:52:13;;;;;;;4.15;3.00;;;;;;;;;;6253597;22;20065;-77
2024/01/07 13:54:39;;;;;;;4.38;2.50;;;;;;;;;;6254230;22;20016;-77
2024/01/07 13:57:06;;;;;;;3.90;2.67;;;;;;;;;;6254286;22;20015;-77
2024/01/07 13:59:33;;;;;;;4.35;2.33;;;;;;;;;;6254483;22;20019;-77
2024/01/07 14:01:59;;;;;;;5.60;2.80;;;;;;;;;;6253643;22;20015;-77
2024/01/07 14:04:25;;;;;;;4.82;2.85;;;;;;;;;;6253944;22;20015;-78
2024/01/07 14:06:58;;;;;;;4.90;2.60;;;;;;;;;;6253910;22;20091;-78
2024/01/07 14:09:24;;;;;;;4.53;2.45;;;;;;;;;;6254189;22;20348;-78
2024/01/07 14:11:50;;;;;;;7.10;2.80;;;;;;;;;;6253851;22;20037;-78
2024/01/07 14:14:19;;;;;;;4.60;2.78;;;;;;;;;;6254412;22;20464;-78
2024/01/07 14:16:45;;;;;;;6.15;3.05;;;;;;;;;;6254081;22;20092;-77
2024/01/07 14:19:11;;;;;;;6.40;3.20;;;;;;;;;;6253882;22;20015;-78
2024/01/07 14:21:37;;;;;;;5.97;3.03;;;;;;;;;;6254283;22;20050;-77
2024/01/07 14:24:03;;;;;;;6.03;3.65;;;;;;;;;;6254013;22;20462;-78
2024/01/07 14:26:29;;;;;;;7.50;4.00;;;;;;;;;;6253936;22;20359;-77
2024/01/07 14:28:55;;;;;;;6.00;3.30;;;;;;;;;;6254234;22;20094;-77
2024/01/07 14:31:22;;;;;;;5.60;3.35;;;;;;;;;;6254204;22;20026;-77
2024/01/07 14:33:48;;;;;;;5.95;2.92;;;;;;;;;;6254130;22;20051;-77
2024/01/07 14:36:16;;;;;;;5.70;3.25;;;;;;;;;;6253441;22;20324;-78
2024/01/07 14:38:44;;;;;;;5.93;3.17;;;;;;;;;;6254189;22;20426;-78
2024/01/07 14:41:11;;;;;;;4.80;3.00;;;;;;;;;;6253305;22;20016;-78
2024/01/07 14:43:37;;;;;;;4.78;2.83;;;;;;;;;;6254009;22;20050;-77
2024/01/07 14:46:09;;;;;;;5.40;3.45;;;;;;;;;;6253840;22;20045;-77
2024/01/07 14:48:36;;;;;;;4.78;3.08;;;;;;;;;;6253324;22;20018;-77
2024/01/07 14:51:02;;;;;;;4.97;3.00;;;;;;;;;;6254198;22;20046;-77
2024/01/07 14:53:29;;;;;;;8.63;4.38;;;;;;;;;;6253415;22;20012;-77
2024/01/07 14:55:55;;;;;;;6.38;2.90;;;;;;;;;;6256241;22;20069;-77
2024/01/07 14:58:22;;;;;;;5.47;3.22;;;;;;;;;;6253476;22;20339;-77
2024/01/07 15:00:49;;;;;;;6.47;3.00;;;;;;;;;;6253171;22;20019;-78
2024/01/07 15:03:16;;;;;;;4.80;2.88;;;;;;;;;;6253511;22;20072;-78
2024/01/07 15:05:43;;;;;;;6.72;3.08;;;;;;;;;;6253621;22;20021;-78
2024/01/07 15:08:12;;;;;;;4.28;3.10;;;;;;;;;;6253628;22;20098;-78
2024/01/07 15:10:39;;;;;;;6.43;3.20;;;;;;;;;;6253178;22;20019;-78
2024/01/07 15:13:05;;;;;;;7.97;3.80;;;;;;;;;;6253257;22;20462;-78
2024/01/07 15:15:31;;;;;;;5.72;3.00;;;;;;;;;;6278872;22;20090;-78
2024/01/07 15:17:58;;;;;;;5.10;3.70;;;;;;;;;;6254164;22;20020;-77
2024/01/07 15:20:24;;;;;;;4.22;2.83;;;;;;;;;;6253742;22;20026;-78
2024/01/07 15:22:53;;;;;;;4.40;2.97;;;;;;;;;;6254285;22;20030;-78
2024/01/07 15:25:19;;;;;;;8.80;3.40;;;;;;;;;;6253608;22;20030;-77
2024/01/07 15:27:45;;;;;;;4.00;2.90;;;;;;;;;;6253267;22;20312;-77
2024/01/07 15:30:12;;;;;;;5.57;3.13;;;;;;;;;;6252963;22;20015;-77
2024/01/07 15:32:38;;;;;;;4.82;2.83;;;;;;;;;;6253510;22;20533;-77
2024/01/07 15:35:05;;;;;;;3.83;2.95;;;;;;;;;;6253009;22;20027;-77
2024/01/07 15:37:34;;;;;;;4.95;3.08;;;;;;;;;;6253496;22;20015;-77
2024/01/07 15:40:00;;;;;;;4.57;3.03;;;;;;;;;;6254091;22;20016;-78
2024/01/07 15:42:29;;;;;;;7.28;3.22;;;;;;;;;;6253361;22;20333;-77
2024/01/07 15:44:55;;;;;;;3.80;2.72;;;;;;;;;;6253608;22;20090;-77
2024/01/07 15:47:23;;;;;;;4.38;2.90;;;;;;;;;;6253489;22;20152;-77
2024/01/07 15:49:49;;;;;;;5.57;2.75;;;;;;;;;;6281389;22;20021;-77
2024/01/07 15:52:15;;;;;;;3.50;2.60;;;;;;;;;;6255641;22;20051;-77
2024/01/07 15:54:41;;;;;;;4.05;2.70;;;;;;;;;;6254884;22;20015;-77
2024/01/07 15:57:07;;;;;;;5.40;2.80;;;;;;;;;;6255214;22;20019;-77
2024/01/07 15:59:34;;;;;;;5.13;2.53;;;;;;;;;;6254881;22;20139;-77
2024/01/07 16:02:00;;;;;;;3.92;2.65;;;;;;;;;;6255309;22;20015;-77
2024/01/07 16:04:27;;;;;;;5.57;2.67;;;;;;;;;;6255250;22;20068;-77
2024/01/07 16:06:53;;;;;;;4.22;2.55;;;;;;;;;;6255294;22;20012;-77
2024/01/07 16:09:19;;;;;;;3.53;2.50;;;;;;;;;;6255449;22;20022;-76
2024/01/07 16:11:45;;;;;;;6.15;2.92;;;;;;;;;;6255092;22;20045;-77
2024/01/07 16:14:17;;;;;;;3.95;2.70;;;;;;;;;;6255519;22;20015;-77
2024/01/07 16:16:43;;;;;;;5.32;2.50;;;;;;;;;;6254652;22;20012;-77
2024/01/07 16:19:10;;;;;;;5.47;2.90;;;;;;;;;;6254995;22;20023;-77
2024/01/07 16:21:36;;;;;;;4.28;2.70;;;;;;;;;;6255332;22;20023;-77
2024/01/07 16:24:03;;;;;;;5.25;2.70;;;;;;;;;;6308284;22;20022;-77
2024/01/07 16:26:29;;;;;;;6.00;2.70;;;;;;;;;;6280495;22;20098;-77
2024/01/07 16:28:55;;;;;;;4.32;2.50;;;;;;;;;;6255835;22;20023;-77
2024/01/07 16:31:22;;;;;;;5.38;2.70;;;;;;;;;;6280338;22;20344;-77
2024/01/07 16:33:48;;;;;;;3.33;2.17;;;;;;;;;;6280423;22;20045;-78
2024/01/07 16:36:14;;;;;;;5.93;2.90;;;;;;;;;;6255195;22;20015;-78
2024/01/07 16:38:40;;;;;;;4.55;2.63;;;;;;;;;;6280727;22;20455;-78
2024/01/07 16:41:08;;;;;;;6.07;2.50;;;;;;;;;;6255112;22;20023;-78
2024/01/07 16:43:35;;;;;;;5.60;2.55;;;;;;;;;;6255174;22;20057;-78
2024/01/07 16:46:05;;;;;;;4.53;3.00;;;;;;;;;;6254877;22;20019;-78
2024/01/07 16:48:33;;;;;;;4.60;3.00;;;;;;;;;;6254833;22;20151;-78
2024/01/07 16:50:59;;;;;;;5.35;2.90;;;;;;;;;;6254492;22;20021;-78
2024/01/07 16:53:25;;;;;;;5.82;2.63;;;;;;;;;;6254233;22;20479;-78
2024/01/07 16:55:54;;;;;;;5.93;3.25;;;;;;;;;;6279915;22;20335;-77
2024/01/07 16:58:20;;;;;;;5.47;2.67;;;;;;;;;;6254934;22;20023;-78
2024/01/07 17:00:49;;;;;;;4.18;2.60;;;;;;;;;;6280457;22;20447;-78
2024/01/07 17:03:15;;;;;;;5.97;2.53;;;;;;;;;;6255230;22;20470;-78
2024/01/07 17:05:42;;;;;;;3.35;2.55;;;;;;;;;;6280925;22;20027;-78
2024/01/07 17:08:09;;;;;;;4.35;2.50;;;;;;;;;;6280445;22;20016;-78
2024/01/07 17:10:35;;;;;;;4.28;2.58;;;;;;;;;;6280180;22;20090;-77
2024/01/07 17:13:01;;;;;;;4.70;2.40;;;;;;;;;;6255050;22;20015;-77
2024/01/07 17:15:27;;;;;;;3.92;2.50;;;;;;;;;;6254360;22;20023;-78
2024/01/07 17:17:53;;;;;;;5.65;2.85;;;;;;;;;;6254732;22;20094;-77
2024/01/07 17:20:19;;;;;;;6.78;3.05;;;;;;;;;;6255030;22;20020;-78
2024/01/07 17:22:45;;;;;;;6.30;2.83;;;;;;;;;;6254560;22;20047;-78
2024/01/07 17:25:11;;;;;;;5.20;2.63;;;;;;;;;;6254408;22;20114;-77
2024/01/07 17:27:38;;;;;;;6.15;2.78;;;;;;;;;;6254297;22;20012;-77
2024/01/07 17:30:04;;;;;;;5.10;2.90;;;;;;;;;;6254480;22;20122;-77
2024/01/07 17:32:30;;;;;;;4.38;2.85;;;;;;;;;;6254267;22;20026;-77
2024/01/07 17:34:56;;;;;;;5.22;3.10;;;;;;;;;;6279958;22;20011;-77
2024/01/07 17:37:22;;;;;;;8.18;2.65;;;;;;;;;;6254720;22;20019;-78
2024/01/07 17:39:49;;;;;;;7.60;3.50;;;;;;;;;;6280169;22;20019;-77
2024/01/07 17:42:15;;;;;;;3.95;2.30;;;;;;;;;;6307318;22;20011;-77
2024/01/07 17:44:41;;;;;;;5.82;2.15;;;;;;;;;;6254584;22;20020;-77
2024/01/07 17:47:07;;;;;;;4.40;2.50;;;;;;;;;;6279952;22;20475;-77
2024/01/07 17:49:33;;;;;;;3.85;2.13;;;;;;;;;;6253906;22;20015;-77
2024/01/07 17:52:02;;;;;;;4.00;2.47;;;;;;;;;;6254597;22;20015;-77
2024/01/07 17:54:28;;;;;;;6.45;2.80;;;;;;;;;;6279773;22;20015;-77
2024/01/07 17:56:54;;;;;;;3.35;2.67;;;;;;;;;;6254431;22;20012;-77
2024/01/07 17:59:20;;;;;;;4.05;2.45;;;;;;;;;;6279525;22;20015;-77
2024/01/07 18:01:46;;;;;;;5.00;2.30;;;;;;;;;;6254361;22;20015;-77
2024/01/07 18:04:13;;;;;;;4.00;2.22;;;;;;;;;;6254424;22;20411;-77
2024/01/07 18:06:39;;;;;;;5.38;2.17;;;;;;;;;;6279720;22;20018;-77
2024/01/07 18:09:05;;;;;;;4.10;2.40;;;;;;;;;;6254489;22;20389;-78
2024/01/07 18:11:33;;;;;;;3.25;2.10;;;;;;;;;;6253892;22;20030;-78
2024/01/07 18:13:59;;;;;;;4.78;2.55;;;;;;;;;;6254295;22;20020;-77
2024/01/07 18:16:26;;;;;;;3.60;2.33;;;;;;;;;;6254329;22;20151;-77
2024/01/07 18:18:52;;;;;;;3.47;2.30;;;;;;;;;;6253607;22;20094;-77